createdAt,value
2023-10-26T00:01:41.294Z,99576.94
2023-10-26T00:04:11.183Z,99585.31
2023-10-26T00:06:39.599Z,99591.44
2023-10-26T00:09:08.088Z,99595.66
2023-10-26T00:11:36.467Z,99596.78
2023-10-26T00:14:05.055Z,99601.91
2023-10-26T00:16:33.360Z,99603.72
2023-10-26T00:19:03.305Z,99603.94
2023-10-26T00:21:33.720Z,99595.75
2023-10-26T00:24:02.120Z,99587.88
2023-10-26T00:26:30.612Z,99598.41
2023-10-26T00:28:59.734Z,99598.63
2023-10-26T00:31:28.070Z,99593.16
2023-10-26T00:33:56.461Z,99584.59
2023-10-26T00:36:24.833Z,99582.78
2023-10-26T00:38:55.208Z,99591.25
2023-10-26T00:41:23.650Z,99591.44
2023-10-26T00:43:52.681Z,99591.78
2023-10-26T00:46:21.274Z,99563.44
2023-10-26T00:48:49.911Z,99594.81
2023-10-26T00:51:18.800Z,99597.50
2023-10-26T00:53:47.404Z,99582.25
2023-10-26T00:56:21.977Z,99587.34
2023-10-26T00:58:51.373Z,99588.91
2023-10-26T01:01:20.205Z,99591.53
2023-10-26T01:03:50.202Z,99597.47
2023-10-26T01:06:18.681Z,99597.28
2023-10-26T01:08:48.318Z,99593.72
2023-10-26T01:11:21.193Z,99593.16
2023-10-26T01:13:50.192Z,99584.66
2023-10-26T01:16:19.193Z,99577.84
2023-10-26T01:18:48.058Z,99578.97
2023-10-26T01:21:16.512Z,99579.84
2023-10-26T01:23:46.293Z,99573.25
2023-10-26T01:26:14.661Z,99577.50
2023-10-26T01:28:43.073Z,99573.59
2023-10-26T01:31:11.374Z,99571.69
2023-10-26T01:33:39.798Z,99562.72
2023-10-26T01:36:08.812Z,99549.84
2023-10-26T01:38:38.272Z,99549.66
2023-10-26T01:41:08.273Z,99580.03
2023-10-26T01:43:36.602Z,99584.34
2023-10-26T01:46:05.253Z,99579.16
2023-10-26T01:48:34.818Z,99589.78
2023-10-26T01:51:03.408Z,99596.06
2023-10-26T01:53:31.789Z,99595.66
2023-10-26T01:56:00.174Z,99603.69
2023-10-26T01:58:30.213Z,99594.28
2023-10-26T02:00:58.616Z,99587.13
2023-10-26T02:03:27.294Z,99580.25
2023-10-26T02:05:56.225Z,99582.97
2023-10-26T02:08:24.705Z,99582.16
2023-10-26T02:10:53.747Z,99572.38
2023-10-26T02:13:22.040Z,99574.00
2023-10-26T02:15:51.877Z,99564.38
2023-10-26T02:18:20.267Z,99567.81
2023-10-26T02:20:48.812Z,99570.50
2023-10-26T02:23:17.309Z,99568.72
2023-10-26T02:25:45.578Z,99565.34
2023-10-26T02:28:16.969Z,99558.31
2023-10-26T02:30:46.653Z,99568.72
2023-10-26T02:33:16.431Z,99569.34
2023-10-26T02:35:44.785Z,99570.81
2023-10-26T02:38:13.244Z,99567.38
2023-10-26T02:40:42.131Z,99564.16
2023-10-26T02:43:10.576Z,99521.78
2023-10-26T02:45:38.931Z,99562.16
2023-10-26T02:48:07.700Z,99546.25
2023-10-26T02:50:38.312Z,99553.06
2023-10-26T02:53:06.630Z,99544.31
2023-10-26T02:55:35.019Z,99551.06
2023-10-26T02:58:03.353Z,99553.66
2023-10-26T03:00:31.745Z,99564.06
2023-10-26T03:03:00.265Z,99567.59
2023-10-26T03:05:30.980Z,99565.84
2023-10-26T03:08:01.022Z,99563.16
2023-10-26T03:10:29.874Z,99442.50
2023-10-26T03:12:58.681Z,99562.28
2023-10-26T03:15:28.233Z,99555.34
2023-10-26T03:17:56.663Z,99549.28
2023-10-26T03:20:25.245Z,99556.38
2023-10-26T03:22:53.588Z,99545.13
2023-10-26T03:25:24.836Z,99544.38
2023-10-26T03:27:53.154Z,99541.00
2023-10-26T03:30:21.618Z,99535.66
2023-10-26T03:32:50.273Z,99539.97
2023-10-26T03:35:18.773Z,99538.19
2023-10-26T03:37:47.167Z,99539.97
2023-10-26T03:40:15.912Z,99529.91
2023-10-26T03:42:45.952Z,99533.19
2023-10-26T03:45:15.885Z,99533.78
2023-10-26T03:47:44.288Z,99530.16
2023-10-26T03:50:15.761Z,99523.06
2023-10-26T03:52:45.438Z,99520.91
2023-10-26T03:55:13.861Z,99522.28
2023-10-26T03:57:42.149Z,99505.41
2023-10-26T04:00:14.023Z,99511.47
2023-10-26T04:02:42.554Z,99508.66
2023-10-26T04:05:11.573Z,99505.16
2023-10-26T04:07:40.951Z,99498.88
2023-10-26T04:10:11.109Z,99498.66
2023-10-26T04:12:39.679Z,99484.84
2023-10-26T04:15:09.313Z,99507.41
2023-10-26T04:17:39.197Z,99512.66
2023-10-26T04:20:10.031Z,99514.56
2023-10-26T04:22:38.456Z,99515.16
2023-10-26T04:25:07.558Z,99505.72
2023-10-26T04:27:36.555Z,99508.13
2023-10-26T04:30:06.304Z,99514.03
2023-10-26T04:32:34.853Z,99511.91
2023-10-26T04:35:04.999Z,99507.31
2023-10-26T04:37:33.379Z,99507.94
2023-10-26T04:40:03.780Z,99487.13
2023-10-26T04:42:32.657Z,99503.63
2023-10-26T04:45:01.087Z,99509.84
2023-10-26T04:47:29.481Z,99507.34
2023-10-26T04:49:57.890Z,99509.22
2023-10-26T04:52:27.579Z,99511.91
2023-10-26T04:54:56.020Z,99517.19
2023-10-26T04:57:24.374Z,99506.97
2023-10-26T04:59:52.696Z,99507.84
2023-10-26T05:02:21.093Z,99506.19
2023-10-26T05:04:49.435Z,99505.50
2023-10-26T05:07:17.779Z,99500.75
2023-10-26T05:09:47.455Z,99506.63
2023-10-26T05:12:15.831Z,99510.16
2023-10-26T05:14:44.366Z,99529.28
2023-10-26T05:17:12.870Z,99507.00
2023-10-26T05:19:41.381Z,99507.56
2023-10-26T05:22:09.687Z,99502.16
2023-10-26T05:24:40.023Z,99497.81
2023-10-26T05:27:09.785Z,99497.75
2023-10-26T05:29:38.126Z,99488.84
2023-10-26T05:32:06.986Z,99487.03
2023-10-26T05:34:35.253Z,99483.75
2023-10-26T05:37:03.530Z,99482.00
2023-10-26T05:39:34.350Z,99439.56
2023-10-26T05:42:05.306Z,99474.28
2023-10-26T05:44:35.286Z,99483.88
2023-10-26T05:47:03.640Z,99478.72
2023-10-26T05:49:31.929Z,99478.34
2023-10-26T05:52:02.077Z,99480.75
2023-10-26T05:54:30.831Z,99472.91
2023-10-26T05:56:59.302Z,99468.16
2023-10-26T05:59:27.785Z,99462.19
2023-10-26T06:01:57.924Z,99464.38
2023-10-26T06:04:26.298Z,99450.53
2023-10-26T06:06:54.559Z,99460.72
2023-10-26T06:09:23.884Z,99455.22
2023-10-26T06:11:52.540Z,99460.31
2023-10-26T06:14:20.869Z,99453.69
2023-10-26T06:16:49.348Z,99455.50
2023-10-26T06:19:19.431Z,99459.81
2023-10-26T06:21:47.810Z,99449.16
2023-10-26T06:24:16.173Z,99456.25
2023-10-26T06:26:44.516Z,99455.88
2023-10-26T06:29:11.965Z,99455.28
2023-10-26T06:31:40.342Z,99458.63
2023-10-26T06:34:08.827Z,99453.97
2023-10-26T06:36:38.589Z,99467.03
2023-10-26T06:39:07.093Z,99460.41
2023-10-26T06:41:35.450Z,99469.34
2023-10-26T06:44:06.322Z,99474.16
2023-10-26T06:46:34.676Z,99472.09
2023-10-26T06:49:08.934Z,99473.22
2023-10-26T06:51:49.541Z,99469.00
2023-10-26T06:54:18.210Z,99471.03
2023-10-26T06:56:46.689Z,99467.91
2023-10-26T06:59:15.042Z,99475.59
2023-10-26T07:02:09.110Z,99467.38
2023-10-26T07:04:33.658Z,99458.94
2023-10-26T07:07:07.770Z,99464.78
2023-10-26T07:09:41.186Z,99463.97
2023-10-26T07:12:12.968Z,99473.16
2023-10-26T07:14:45.469Z,99472.50
2023-10-26T07:17:15.535Z,99473.91
2023-10-26T07:19:44.022Z,99478.63
2023-10-26T07:22:13.736Z,99465.78
2023-10-26T07:24:42.305Z,99477.19
2023-10-26T07:27:10.874Z,99464.97
2023-10-26T07:29:39.545Z,99458.34
2023-10-26T07:32:08.710Z,99476.94
2023-10-26T07:34:37.051Z,99478.72
2023-10-26T07:37:07.739Z,99469.41
2023-10-26T07:39:45.257Z,99478.69
2023-10-26T07:42:16.640Z,99471.06
2023-10-26T07:44:45.985Z,99482.09
2023-10-26T07:47:14.537Z,99475.00
2023-10-26T07:49:42.863Z,99468.81
2023-10-26T07:52:11.234Z,99471.44
2023-10-26T07:54:41.022Z,99471.94
2023-10-26T07:57:09.398Z,99473.75
2023-10-26T07:59:37.756Z,99476.78
2023-10-26T08:02:05.459Z,99480.09
2023-10-26T08:04:34.375Z,99460.44
2023-10-26T08:07:02.845Z,99474.00
2023-10-26T08:09:33.634Z,99469.78
2023-10-26T08:12:04.159Z,99467.38
2023-10-26T08:16:09.999Z,99472.31
2023-10-26T08:17:22.001Z,99470.31
2023-10-26T08:19:54.905Z,99476.75
2023-10-26T08:22:23.626Z,99466.28
2023-10-26T08:24:52.019Z,99477.47
2023-10-26T08:27:21.747Z,99473.78
2023-10-26T08:29:52.494Z,99481.94
2023-10-26T08:32:21.197Z,99494.41
2023-10-26T08:34:50.109Z,99480.94
2023-10-26T08:37:19.602Z,99486.22
2023-10-26T08:39:47.926Z,99486.19
2023-10-26T08:42:17.059Z,99471.00
2023-10-26T08:44:47.097Z,99477.16
2023-10-26T08:47:18.851Z,99472.69
2023-10-26T08:50:03.650Z,99479.78
2023-10-26T08:52:36.786Z,99487.66
2023-10-26T08:55:06.254Z,99476.13
2023-10-26T08:57:34.629Z,99473.00
2023-10-26T09:00:07.388Z,99473.13
2023-10-26T09:02:35.916Z,99464.25
2023-10-26T09:05:05.561Z,99468.00
2023-10-26T09:07:34.093Z,99472.06
2023-10-26T09:10:02.892Z,99472.00
2023-10-26T09:12:31.301Z,99485.25
2023-10-26T09:15:00.007Z,99484.47
2023-10-26T09:17:31.323Z,99475.00
2023-10-26T09:20:00.885Z,99482.09
2023-10-26T09:22:39.814Z,99468.56
2023-10-26T09:25:13.683Z,99346.06
2023-10-26T09:27:45.655Z,99458.28
2023-10-26T09:30:30.381Z,99454.59
2023-10-26T09:33:01.148Z,99455.03
2023-10-26T09:35:31.299Z,99443.47
2023-10-26T09:38:00.713Z,99459.84
2023-10-26T09:40:30.362Z,99460.44
2023-10-26T09:42:59.154Z,99452.19
2023-10-26T09:45:28.588Z,99459.25
2023-10-26T09:47:57.519Z,99459.88
2023-10-26T09:50:27.886Z,99460.72
2023-10-26T09:52:57.808Z,99455.66
2023-10-26T09:55:27.307Z,99450.88
2023-10-26T09:58:01.911Z,99455.03
2023-10-26T10:00:36.279Z,99439.06
2023-10-26T10:03:15.273Z,99456.75
2023-10-26T10:05:48.120Z,99458.56
2023-10-26T10:08:57.616Z,99459.22
2023-10-26T10:11:27.149Z,99465.59
2023-10-26T10:13:55.636Z,99464.28
2023-10-26T10:16:54.099Z,99467.31
2023-10-26T10:19:24.566Z,99470.25
2023-10-26T10:21:54.670Z,99456.84
2023-10-26T10:24:55.467Z,99454.09
2023-10-26T10:27:24.134Z,99448.03
2023-10-26T10:29:52.951Z,99443.53
2023-10-26T10:32:52.295Z,99428.78
2023-10-26T10:35:44.510Z,99421.53
2023-10-26T10:38:25.131Z,99422.44
2023-10-26T10:41:10.985Z,99432.41
2023-10-26T10:43:44.548Z,99427.38
2023-10-26T10:46:21.357Z,99430.00
2023-10-26T10:49:07.012Z,99418.19
2023-10-26T10:51:37.118Z,99412.00
2023-10-26T10:54:22.383Z,99429.19
2023-10-26T10:56:58.159Z,99426.16
2023-10-26T10:59:31.402Z,99422.31
2023-10-26T11:02:11.463Z,99427.63
2023-10-26T11:04:59.716Z,99310.66
2023-10-26T11:07:32.490Z,99301.72
2023-10-26T11:10:04.847Z,99419.88
2023-10-26T11:12:33.253Z,99415.34
2023-10-26T11:15:02.178Z,99423.94
2023-10-26T11:17:32.804Z,99422.75
2023-10-26T11:20:01.149Z,99416.84
2023-10-26T11:22:29.791Z,99428.03
2023-10-26T11:24:58.199Z,99428.97
2023-10-26T11:27:27.932Z,99426.03
2023-10-26T11:30:05.179Z,99429.56
2023-10-26T11:32:34.040Z,99429.50
2023-10-26T11:35:10.885Z,99436.97
2023-10-26T11:37:42.363Z,99427.28
2023-10-26T11:40:12.715Z,99414.13
2023-10-26T11:42:50.326Z,99416.41
2023-10-26T11:45:21.015Z,99411.81
2023-10-26T11:47:52.028Z,99412.84
2023-10-26T11:50:25.030Z,99412.63
2023-10-26T11:52:55.420Z,99419.88
2023-10-26T11:55:25.622Z,99413.75
2023-10-26T11:57:57.817Z,99389.22
2023-10-26T12:00:27.801Z,99408.25
2023-10-26T12:02:57.077Z,99405.19
2023-10-26T12:05:27.262Z,99408.66
2023-10-26T12:07:56.613Z,99398.31
2023-10-26T12:10:26.295Z,99399.00
2023-10-26T12:12:56.276Z,99390.56
2023-10-26T12:15:25.090Z,99388.63
2023-10-26T12:17:53.876Z,99398.72
2023-10-26T12:20:22.390Z,99395.56
2023-10-26T12:22:53.180Z,99395.59
2023-10-26T12:25:21.824Z,99402.69
2023-10-26T12:28:19.765Z,99403.75
2023-10-26T12:30:40.048Z,99400.34
2023-10-26T12:33:08.535Z,99408.22
2023-10-26T12:35:36.888Z,99412.81
2023-10-26T12:38:05.191Z,99405.72
2023-10-26T12:40:33.507Z,99397.31
2023-10-26T12:43:01.937Z,99402.75
2023-10-26T12:45:30.368Z,99390.81
2023-10-26T12:48:00.864Z,99383.91
2023-10-26T12:50:29.534Z,99358.09
2023-10-26T12:52:57.882Z,99383.00
2023-10-26T12:55:26.214Z,99383.72
2023-10-26T12:57:56.542Z,99379.53
2023-10-26T13:00:26.204Z,99376.31
2023-10-26T13:02:54.656Z,99366.59
2023-10-26T13:05:24.552Z,99375.13
2023-10-26T13:07:53.460Z,99372.28
2023-10-26T13:10:21.911Z,99369.44
2023-10-26T13:12:50.183Z,99377.19
2023-10-26T13:15:21.182Z,99363.25
2023-10-26T13:17:50.513Z,99362.56
2023-10-26T13:20:20.059Z,99360.53
2023-10-26T13:22:51.916Z,99349.94
2023-10-26T13:25:21.551Z,99343.00
2023-10-26T13:27:50.443Z,99341.91
2023-10-26T13:30:19.056Z,99334.59
2023-10-26T13:32:47.451Z,99355.00
2023-10-26T13:35:15.768Z,99342.91
2023-10-26T13:37:44.105Z,99340.03
2023-10-26T13:40:14.336Z,99339.09
2023-10-26T13:42:42.698Z,99337.09
2023-10-26T13:45:11.872Z,99351.78
2023-10-26T13:47:40.578Z,99349.91
2023-10-26T13:50:10.357Z,99253.81
2023-10-26T13:52:38.762Z,99347.19
2023-10-26T13:55:07.855Z,99346.81
2023-10-26T13:57:37.599Z,99349.59
2023-10-26T14:00:09.739Z,99346.19
2023-10-26T14:02:40.875Z,99341.09
2023-10-26T14:05:24.690Z,99335.56
2023-10-26T14:07:59.194Z,99322.28
2023-10-26T14:10:27.637Z,99307.81
2023-10-26T14:12:57.574Z,99312.47
2023-10-26T14:15:26.263Z,99301.78
2023-10-26T14:17:54.687Z,99300.75
2023-10-26T14:20:23.206Z,99305.09
2023-10-26T14:22:51.534Z,99284.19
2023-10-26T14:25:20.244Z,99277.25
2023-10-26T14:27:48.527Z,99274.25
2023-10-26T14:30:18.462Z,99272.50
2023-10-26T14:32:46.856Z,99276.91
2023-10-26T14:35:16.657Z,99272.59
2023-10-26T14:37:50.402Z,99257.81
2023-10-26T14:40:19.808Z,99261.25
2023-10-26T14:42:48.473Z,99253.44
2023-10-26T14:45:18.369Z,99261.50
2023-10-26T14:47:47.036Z,99259.94
2023-10-26T14:50:15.646Z,99258.06
2023-10-26T14:52:44.113Z,99262.75
2023-10-26T14:55:12.537Z,99268.16
2023-10-26T14:57:40.938Z,99268.13
2023-10-26T15:00:11.555Z,99282.09
2023-10-26T15:02:41.384Z,99277.78
2023-10-26T15:05:10.719Z,99281.66
2023-10-26T15:07:39.247Z,99287.44
2023-10-26T15:10:22.999Z,99288.97
2023-10-26T15:12:54.533Z,99288.31
2023-10-26T15:15:23.032Z,99289.41
2023-10-26T15:17:53.495Z,99258.94
2023-10-26T15:20:21.903Z,99279.31
2023-10-26T15:22:50.269Z,99283.72
2023-10-26T15:25:18.935Z,99279.84
2023-10-26T15:27:47.369Z,99281.06
2023-10-26T15:30:16.015Z,99276.81
2023-10-26T15:32:44.423Z,99108.94
2023-10-26T15:35:14.693Z,99252.66
2023-10-26T15:37:43.005Z,99266.06
2023-10-26T15:40:14.737Z,99253.13
2023-10-26T15:42:43.194Z,99254.88
2023-10-26T15:45:13.691Z,99265.16
2023-10-26T15:47:42.706Z,99303.41
2023-10-26T15:50:13.221Z,99269.41
2023-10-26T15:52:41.585Z,99272.75
2023-10-26T15:55:10.899Z,99266.31
2023-10-26T15:57:39.476Z,99265.81
2023-10-26T16:00:11.450Z,99271.84
2023-10-26T16:02:45.964Z,99268.94
2023-10-26T16:05:17.383Z,99260.94
2023-10-26T16:07:45.817Z,99256.53
2023-10-26T16:10:14.250Z,99264.38
2023-10-26T16:12:42.770Z,99272.63
2023-10-26T16:15:11.757Z,99256.75
2023-10-26T16:17:41.875Z,99256.00
2023-10-26T16:20:12.375Z,99237.38
2023-10-26T16:22:42.181Z,99232.00
2023-10-26T16:25:11.075Z,99246.28
2023-10-26T16:27:39.486Z,99255.63
2023-10-26T16:30:09.849Z,99270.31
2023-10-26T16:32:38.856Z,99283.91
2023-10-26T16:35:10.882Z,99280.41
2023-10-26T16:37:39.381Z,99277.84
2023-10-26T16:40:10.535Z,99279.69
2023-10-26T16:42:39.107Z,99266.78
2023-10-26T16:45:08.226Z,99280.28
2023-10-26T16:47:44.346Z,99267.63
2023-10-26T16:50:23.194Z,99277.56
2023-10-26T16:52:52.187Z,99265.22
2023-10-26T16:55:22.119Z,99268.13
2023-10-26T16:57:50.452Z,99257.47
2023-10-26T17:00:19.746Z,99255.13
2023-10-26T17:02:48.763Z,99215.34
2023-10-26T17:05:17.225Z,99255.91
2023-10-26T17:07:46.675Z,99254.44
2023-10-26T17:10:15.398Z,99252.44
2023-10-26T17:12:46.931Z,99246.66
2023-10-26T17:15:16.181Z,99238.75
2023-10-26T17:17:44.564Z,99267.31
2023-10-26T17:20:13.934Z,99271.84
2023-10-26T17:22:44.654Z,99260.72
2023-10-26T17:25:14.385Z,99259.06
2023-10-26T17:27:44.185Z,99258.59
2023-10-26T17:30:13.627Z,99243.25
2023-10-26T17:32:41.968Z,99259.06
2023-10-26T17:35:11.760Z,99269.38
2023-10-26T17:37:40.216Z,99275.56
2023-10-26T17:40:09.529Z,99264.88
2023-10-26T17:42:38.648Z,99274.56
2023-10-26T17:45:09.993Z,99263.19
2023-10-26T17:47:38.482Z,99269.44
2023-10-26T17:50:08.381Z,99266.66
2023-10-26T17:52:38.262Z,99258.19
2023-10-26T17:55:07.555Z,99256.06
2023-10-26T17:57:36.071Z,99265.28
2023-10-26T18:00:05.729Z,99251.59
2023-10-26T18:02:41.911Z,99259.19
2023-10-26T18:05:11.072Z,99251.16
2023-10-26T18:07:39.404Z,99242.47
2023-10-26T18:10:09.640Z,99250.59
2023-10-26T18:12:38.151Z,99240.28
2023-10-26T18:15:09.261Z,99243.84
2023-10-26T18:17:37.758Z,99237.72
2023-10-26T18:20:11.063Z,99226.97
2023-10-26T18:22:40.376Z,99217.41
2023-10-26T18:25:10.589Z,99222.81
2023-10-26T18:27:39.179Z,99229.03
2023-10-26T18:30:09.437Z,99223.56
2023-10-26T18:32:37.810Z,99220.00
2023-10-26T18:35:09.467Z,99208.72
2023-10-26T18:37:37.798Z,99198.66
2023-10-26T18:40:08.927Z,99202.19
2023-10-26T18:42:37.335Z,99203.69
2023-10-26T18:45:06.566Z,99206.28
2023-10-26T18:47:35.048Z,99198.66
2023-10-26T18:50:03.516Z,99204.47
2023-10-26T18:52:33.252Z,99201.88
2023-10-26T18:55:01.661Z,99205.53
2023-10-26T18:57:30.152Z,99182.66
2023-10-26T18:59:58.456Z,99202.88
2023-10-26T19:02:26.975Z,99199.19
2023-10-26T19:04:55.310Z,99204.47
2023-10-26T19:07:23.660Z,99203.41
2023-10-26T19:09:53.508Z,99189.44
2023-10-26T19:12:22.017Z,99181.91
2023-10-26T19:14:50.745Z,99190.47
2023-10-26T19:17:19.079Z,99193.78
2023-10-26T19:19:47.448Z,99191.94
2023-10-26T19:22:15.833Z,99192.81
2023-10-26T19:24:44.430Z,99193.78
2023-10-26T19:27:14.114Z,99194.88
2023-10-26T19:29:42.752Z,99208.06
2023-10-26T19:32:11.467Z,99208.81
2023-10-26T19:34:39.987Z,99216.66
2023-10-26T19:37:08.427Z,99218.97
2023-10-26T19:39:36.969Z,99225.88
2023-10-26T19:42:06.170Z,99224.72
2023-10-26T19:44:35.859Z,99232.28
2023-10-26T19:47:04.493Z,99223.28
2023-10-26T19:49:32.934Z,99207.16
2023-10-26T19:52:01.292Z,99207.03
2023-10-26T19:54:29.845Z,99208.81
2023-10-26T19:56:58.160Z,99200.19
2023-10-26T19:59:26.540Z,99206.50
2023-10-26T20:01:56.833Z,99199.38
2023-10-26T20:04:25.288Z,99199.44
2023-10-26T20:06:53.795Z,99198.44
2023-10-26T20:09:22.186Z,99193.63
2023-10-26T20:11:51.326Z,99194.94
2023-10-26T20:14:20.383Z,99193.63
2023-10-26T20:16:48.798Z,99196.03
2023-10-26T20:19:18.946Z,99201.38
2023-10-26T20:21:47.544Z,99199.75
2023-10-26T20:24:16.624Z,99192.00
2023-10-26T20:26:45.058Z,99184.78
2023-10-26T20:29:14.841Z,99194.97
2023-10-26T20:31:44.027Z,99178.16
2023-10-26T20:34:18.069Z,99192.81
2023-10-26T20:36:50.169Z,99187.91
2023-10-26T20:39:18.945Z,99191.88
2023-10-26T20:41:47.372Z,99188.53
2023-10-26T20:44:16.630Z,99137.16
2023-10-26T20:46:45.086Z,99175.59
2023-10-26T20:49:13.552Z,99179.03
2023-10-26T20:51:42.712Z,99176.13
2023-10-26T20:54:12.505Z,99172.63
2023-10-26T20:56:40.867Z,99174.28
2023-10-26T20:59:09.220Z,99168.53
2023-10-26T21:01:39.337Z,99154.25
2023-10-26T21:04:08.206Z,99154.09
2023-10-26T21:06:36.791Z,99158.59
2023-10-26T21:09:05.671Z,99160.22
2023-10-26T21:11:35.393Z,99128.13
2023-10-26T21:14:04.250Z,99140.03
2023-10-26T21:16:32.898Z,99025.94
2023-10-26T21:19:01.412Z,99135.53
2023-10-26T21:21:29.765Z,99134.44
2023-10-26T21:23:58.086Z,99132.69
2023-10-26T21:26:27.010Z,99131.53
2023-10-26T21:28:56.692Z,99120.63
2023-10-26T21:31:25.551Z,99117.84
2023-10-26T21:33:54.301Z,99127.47
2023-10-26T21:36:22.759Z,99132.59
2023-10-26T21:38:51.638Z,99012.69
2023-10-26T21:41:19.950Z,99119.28
2023-10-26T21:43:48.277Z,99117.25
2023-10-26T21:46:18.004Z,99127.00
2023-10-26T21:48:46.446Z,99120.63
2023-10-26T21:51:14.869Z,99111.56
2023-10-26T21:53:43.195Z,99114.31
2023-10-26T21:56:11.502Z,99110.38
2023-10-26T21:58:41.756Z,99110.38
2023-10-26T22:01:10.609Z,99108.16
2023-10-26T22:03:43.098Z,99107.53
2023-10-26T22:06:11.654Z,99106.44
2023-10-26T22:08:40.079Z,99097.56
2023-10-26T22:11:08.450Z,99104.03
2023-10-26T22:13:37.954Z,99103.66
2023-10-26T22:16:07.123Z,99099.44
2023-10-26T22:18:35.518Z,99100.47
2023-10-26T22:21:06.791Z,99105.75
2023-10-26T22:23:35.227Z,99099.28
2023-10-26T22:26:04.651Z,99098.22
2023-10-26T22:28:33.054Z,99108.78
2023-10-26T22:31:04.855Z,99089.28
2023-10-26T22:33:37.583Z,99088.72
2023-10-26T22:36:09.061Z,99088.81
2023-10-26T22:38:37.840Z,99068.50
2023-10-26T22:41:09.238Z,99075.16
2023-10-26T22:43:37.624Z,99066.41
2023-10-26T22:46:06.666Z,99078.81
2023-10-26T22:48:34.982Z,99079.06
2023-10-26T22:51:03.314Z,99072.19
2023-10-26T22:53:33.111Z,99075.47
2023-10-26T22:56:02.885Z,99067.41
2023-10-26T22:58:31.208Z,99072.72
2023-10-26T23:00:59.563Z,99071.72
2023-10-26T23:03:27.923Z,99069.69
2023-10-26T23:05:59.755Z,99079.50
2023-10-26T23:08:29.038Z,99053.47
2023-10-26T23:11:01.362Z,99054.41
2023-10-26T23:13:29.686Z,99077.88
2023-10-26T23:15:58.055Z,99070.97
2023-10-26T23:18:26.456Z,99070.63
2023-10-26T23:20:54.882Z,99070.75
2023-10-26T23:23:23.203Z,99074.09
2023-10-26T23:25:51.609Z,99072.97
2023-10-26T23:28:21.341Z,99072.91
2023-10-26T23:30:51.001Z,99081.53
2023-10-26T23:33:19.380Z,99076.78
2023-10-26T23:35:47.733Z,99075.56
2023-10-26T23:38:16.029Z,99069.56
2023-10-26T23:40:44.552Z,99077.00
2023-10-26T23:43:12.909Z,99072.66
2023-10-26T23:45:42.616Z,99066.47
2023-10-26T23:48:10.980Z,99068.94
2023-10-26T23:50:39.331Z,99061.66
2023-10-26T23:53:07.699Z,99065.25
2023-10-26T23:55:36.020Z,99067.13
2023-10-26T23:58:04.496Z,99068.06
